sensor_id;sensor_type;location;lat;lon;timestamp;P1;durP1;ratioP1;P2;durP2;ratioP2
58460;SDS011;45558;37.752;-97.822;2023-08-01T00:00:30;11.70;;;2.08;;
58460;SDS011;45558;37.752;-97.822;2023-08-01T00:02:55;7.95;;;1.77;;
58460;SDS011;45558;37.752;-97.822;2023-08-01T00:05:22;5.07;;;1.10;;
58460;SDS011;45558;37.752;-97.822;2023-08-01T00:07:47;5.47;;;1.05;;
58460;SDS011;45558;37.752;-97.822;2023-08-01T00:10:13;11.55;;;1.48;;
58460;SDS011;45558;37.752;-97.822;2023-08-01T00:12:41;12.75;;;1.33;;
58460;SDS011;45558;37.752;-97.822;2023-08-01T00:15:07;9.00;;;1.17;;
58460;SDS011;45558;37.752;-97.822;2023-08-01T00:17:34;9.30;;;1.88;;
58460;SDS011;45558;37.752;-97.822;2023-08-01T00:20:00;9.40;;;2.40;;
58460;SDS011;45558;37.752;-97.822;2023-08-01T00:22:27;10.93;;;1.27;;
58460;SDS011;45558;37.752;-97.822;2023-08-01T00:24:53;7.68;;;1.77;;
58460;SDS011;45558;37.752;-97.822;2023-08-01T00:27:18;9.43;;;1.23;;
58460;SDS011;45558;37.752;-97.822;2023-08-01T00:29:44;14.35;;;2.10;;
58460;SDS011;45558;37.752;-97.822;2023-08-01T00:32:10;12.95;;;1.70;;
58460;SDS011;45558;37.752;-97.822;2023-08-01T00:34:36;9.88;;;1.45;;
58460;SDS011;45558;37.752;-97.822;2023-08-01T00:37:02;9.15;;;1.45;;
58460;SDS011;45558;37.752;-97.822;2023-08-01T00:39:29;10.52;;;2.50;;
58460;SDS011;45558;37.752;-97.822;2023-08-01T00:41:55;8.18;;;2.30;;
58460;SDS011;45558;37.752;-97.822;2023-08-01T00:44:21;8.15;;;1.33;;
58460;SDS011;45558;37.752;-97.822;2023-08-01T00:46:47;8.02;;;1.48;;
58460;SDS011;45558;37.752;-97.822;2023-08-01T00:49:13;13.38;;;1.90;;
58460;SDS011;45558;37.752;-97.822;2023-08-01T00:51:40;9.70;;;1.52;;
58460;SDS011;45558;37.752;-97.822;2023-08-01T00:54:08;9.13;;;1.83;;
58460;SDS011;45558;37.752;-97.822;2023-08-01T00:56:36;10.18;;;1.42;;
58460;SDS011;45558;37.752;-97.822;2023-08-01T00:59:02;12.10;;;1.35;;
58460;SDS011;45558;37.752;-97.822;2023-08-01T01:01:28;7.47;;;1.45;;
58460;SDS011;45558;37.752;-97.822;2023-08-01T01:03:54;13.85;;;1.88;;
58460;SDS011;45558;37.752;-97.822;2023-08-01T01:09:27;8.70;;;2.28;;
58460;SDS011;45558;37.752;-97.822;2023-08-01T01:11:54;6.90;;;1.83;;
58460;SDS011;45558;37.752;-97.822;2023-08-01T01:14:20;9.80;;;1.70;;
58460;SDS011;45558;37.752;-97.822;2023-08-01T01:16:46;15.10;;;1.38;;
58460;SDS011;45558;37.752;-97.822;2023-08-01T01:19:11;8.05;;;1.42;;
58460;SDS011;45558;37.752;-97.822;2023-08-01T01:21:37;12.45;;;1.50;;
58460;SDS011;45558;37.752;-97.822;2023-08-01T01:24:04;12.35;;;1.27;;
58460;SDS011;45558;37.752;-97.822;2023-08-01T01:26:34;8.80;;;1.88;;
58460;SDS011;45558;37.752;-97.822;2023-08-01T01:29:00;7.88;;;1.60;;
58460;SDS011;45558;37.752;-97.822;2023-08-01T01:31:26;12.23;;;1.50;;
58460;SDS011;45558;37.752;-97.822;2023-08-01T01:33:53;10.40;;;1.77;;
58460;SDS011;45558;37.752;-97.822;2023-08-01T01:36:20;6.05;;;1.17;;
58460;SDS011;45558;37.752;-97.822;2023-08-01T01:38:45;9.90;;;2.25;;
58460;SDS011;45558;37.752;-97.822;2023-08-01T01:41:11;10.05;;;1.85;;
58460;SDS011;45558;37.752;-97.822;2023-08-01T01:43:37;8.75;;;2.38;;
58460;SDS011;45558;37.752;-97.822;2023-08-01T01:46:03;9.65;;;1.50;;
58460;SDS011;45558;37.752;-97.822;2023-08-01T01:48:29;11.43;;;1.35;;
58460;SDS011;45558;37.752;-97.822;2023-08-01T01:50:55;14.27;;;1.70;;
58460;SDS011;45558;37.752;-97.822;2023-08-01T01:53:21;10.57;;;1.60;;
58460;SDS011;45558;37.752;-97.822;2023-08-01T01:55:46;11.80;;;1.75;;
58460;SDS011;45558;37.752;-97.822;2023-08-01T01:58:12;8.57;;;1.58;;
58460;SDS011;45558;37.752;-97.822;2023-08-01T02:00:38;15.23;;;1.92;;
58460;SDS011;45558;37.752;-97.822;2023-08-01T02:03:04;8.27;;;1.20;;
58460;SDS011;45558;37.752;-97.822;2023-08-01T02:05:29;6.53;;;1.67;;
58460;SDS011;45558;37.752;-97.822;2023-08-01T02:07:55;12.30;;;1.90;;
58460;SDS011;45558;37.752;-97.822;2023-08-01T02:10:21;6.97;;;1.58;;
58460;SDS011;45558;37.752;-97.822;2023-08-01T02:12:47;6.95;;;1.52;;
58460;SDS011;45558;37.752;-97.822;2023-08-01T02:15:12;6.15;;;1.17;;
58460;SDS011;45558;37.752;-97.822;2023-08-01T02:17:38;8.05;;;1.30;;
58460;SDS011;45558;37.752;-97.822;2023-08-01T02:20:05;10.82;;;2.05;;
58460;SDS011;45558;37.752;-97.822;2023-08-01T02:22:32;10.07;;;1.70;;
58460;SDS011;45558;37.752;-97.822;2023-08-01T02:24:58;14.45;;;1.65;;
58460;SDS011;45558;37.752;-97.822;2023-08-01T02:27:24;13.70;;;1.73;;
58460;SDS011;45558;37.752;-97.822;2023-08-01T02:29:49;10.85;;;1.67;;
58460;SDS011;45558;37.752;-97.822;2023-08-01T02:32:16;10.93;;;1.33;;
58460;SDS011;45558;37.752;-97.822;2023-08-01T02:34:42;9.75;;;1.40;;
58460;SDS011;45558;37.752;-97.822;2023-08-01T02:37:07;10.18;;;1.65;;
58460;SDS011;45558;37.752;-97.822;2023-08-01T02:39:34;9.80;;;1.52;;
58460;SDS011;45558;37.752;-97.822;2023-08-01T02:42:00;8.75;;;1.95;;
58460;SDS011;45558;37.752;-97.822;2023-08-01T02:44:26;13.10;;;3.90;;
58460;SDS011;45558;37.752;-97.822;2023-08-01T02:46:52;15.18;;;2.00;;
58460;SDS011;45558;37.752;-97.822;2023-08-01T02:49:18;12.18;;;1.70;;
58460;SDS011;45558;37.752;-97.822;2023-08-01T02:51:43;15.85;;;1.35;;
58460;SDS011;45558;37.752;-97.822;2023-08-01T02:54:09;13.40;;;1.67;;
58460;SDS011;45558;37.752;-97.822;2023-08-01T02:56:35;12.13;;;1.95;;
58460;SDS011;45558;37.752;-97.822;2023-08-01T02:59:06;10.60;;;1.38;;
58460;SDS011;45558;37.752;-97.822;2023-08-01T03:01:34;11.93;;;2.13;;
58460;SDS011;45558;37.752;-97.822;2023-08-01T03:04:02;9.10;;;1.75;;
58460;SDS011;45558;37.752;-97.822;2023-08-01T03:06:28;9.82;;;1.80;;
58460;SDS011;45558;37.752;-97.822;2023-08-01T03:08:54;9.35;;;1.95;;
58460;SDS011;45558;37.752;-97.822;2023-08-01T03:11:20;8.77;;;1.65;;
58460;SDS011;45558;37.752;-97.822;2023-08-01T03:13:45;11.20;;;2.50;;
58460;SDS011;45558;37.752;-97.822;2023-08-01T03:16:11;13.98;;;1.85;;
58460;SDS011;45558;37.752;-97.822;2023-08-01T03:18:37;13.80;;;2.25;;
58460;SDS011;45558;37.752;-97.822;2023-08-01T03:21:03;12.68;;;2.05;;
58460;SDS011;45558;37.752;-97.822;2023-08-01T03:26:50;9.40;;;2.05;;
58460;SDS011;45558;37.752;-97.822;2023-08-01T03:29:16;12.35;;;1.90;;
58460;SDS011;45558;37.752;-97.822;2023-08-01T03:31:41;13.63;;;2.38;;
58460;SDS011;45558;37.752;-97.822;2023-08-01T03:34:07;13.13;;;2.10;;
58460;SDS011;45558;37.752;-97.822;2023-08-01T03:36:34;8.77;;;1.38;;
58460;SDS011;45558;37.752;-97.822;2023-08-01T03:39:00;11.82;;;2.65;;
58460;SDS011;45558;37.752;-97.822;2023-08-01T03:41:26;9.05;;;1.83;;
58460;SDS011;45558;37.752;-97.822;2023-08-01T03:43:52;14.55;;;1.95;;
58460;SDS011;45558;37.752;-97.822;2023-08-01T03:46:18;10.77;;;1.83;;
58460;SDS011;45558;37.752;-97.822;2023-08-01T03:48:45;11.45;;;1.55;;
58460;SDS011;45558;37.752;-97.822;2023-08-01T03:51:11;11.00;;;2.42;;
58460;SDS011;45558;37.752;-97.822;2023-08-01T03:53:37;10.10;;;2.30;;
58460;SDS011;45558;37.752;-97.822;2023-08-01T03:56:02;10.05;;;2.10;;
58460;SDS011;45558;37.752;-97.822;2023-08-01T03:58:28;10.13;;;2.03;;
58460;SDS011;45558;37.752;-97.822;2023-08-01T04:00:54;12.02;;;2.00;;
58460;SDS011;45558;37.752;-97.822;2023-08-01T04:03:19;9.80;;;1.77;;
58460;SDS011;45558;37.752;-97.822;2023-08-01T04:05:46;11.00;;;1.58;;
58460;SDS011;45558;37.752;-97.822;2023-08-01T04:08:12;14.00;;;1.40;;
58460;SDS011;45558;37.752;-97.822;2023-08-01T04:10:38;6.82;;;1.67;;
58460;SDS011;45558;37.752;-97.822;2023-08-01T04:13:04;8.98;;;1.30;;
58460;SDS011;45558;37.752;-97.822;2023-08-01T04:15:30;11.18;;;1.52;;
58460;SDS011;45558;37.752;-97.822;2023-08-01T04:17:55;8.50;;;2.42;;
58460;SDS011;45558;37.752;-97.822;2023-08-01T04:23:43;10.65;;;1.98;;
58460;SDS011;45558;37.752;-97.822;2023-08-01T04:26:08;8.32;;;1.67;;
58460;SDS011;45558;37.752;-97.822;2023-08-01T04:28:34;7.03;;;1.40;;
58460;SDS011;45558;37.752;-97.822;2023-08-01T04:31:00;9.85;;;1.35;;
58460;SDS011;45558;37.752;-97.822;2023-08-01T04:33:26;5.07;;;1.02;;
58460;SDS011;45558;37.752;-97.822;2023-08-01T04:35:52;8.48;;;1.48;;
58460;SDS011;45558;37.752;-97.822;2023-08-01T04:38:17;9.77;;;1.80;;
58460;SDS011;45558;37.752;-97.822;2023-08-01T04:40:43;12.63;;;1.50;;
58460;SDS011;45558;37.752;-97.822;2023-08-01T04:43:09;8.65;;;1.30;;
58460;SDS011;45558;37.752;-97.822;2023-08-01T04:45:36;10.45;;;1.30;;
58460;SDS011;45558;37.752;-97.822;2023-08-01T04:48:02;7.25;;;1.40;;
58460;SDS011;45558;37.752;-97.822;2023-08-01T04:50:28;4.82;;;1.15;;
58460;SDS011;45558;37.752;-97.822;2023-08-01T04:52:54;3.72;;;1.08;;
58460;SDS011;45558;37.752;-97.822;2023-08-01T04:55:20;4.50;;;0.88;;
58460;SDS011;45558;37.752;-97.822;2023-08-01T04:57:45;4.18;;;0.70;;
58460;SDS011;45558;37.752;-97.822;2023-08-01T05:00:11;3.90;;;1.20;;
58460;SDS011;45558;37.752;-97.822;2023-08-01T05:02:37;10.10;;;1.75;;
58460;SDS011;45558;37.752;-97.822;2023-08-01T05:05:03;5.18;;;0.88;;
58460;SDS011;45558;37.752;-97.822;2023-08-01T05:07:30;2.35;;;0.60;;
58460;SDS011;45558;37.752;-97.822;2023-08-01T05:09:56;4.15;;;1.00;;
58460;SDS011;45558;37.752;-97.822;2023-08-01T05:12:21;5.55;;;0.95;;
58460;SDS011;45558;37.752;-97.822;2023-08-01T05:14:47;4.80;;;1.00;;
58460;SDS011;45558;37.752;-97.822;2023-08-01T05:17:13;10.43;;;1.05;;
58460;SDS011;45558;37.752;-97.822;2023-08-01T05:19:38;3.40;;;1.10;;
58460;SDS011;45558;37.752;-97.822;2023-08-01T05:22:04;3.45;;;0.95;;
58460;SDS011;45558;37.752;-97.822;2023-08-01T05:24:30;4.35;;;1.88;;
58460;SDS011;45558;37.752;-97.822;2023-08-01T05:26:56;6.30;;;1.25;;
58460;SDS011;45558;37.752;-97.822;2023-08-01T05:29:22;5.88;;;1.30;;
58460;SDS011;45558;37.752;-97.822;2023-08-01T05:31:48;5.65;;;1.23;;
58460;SDS011;45558;37.752;-97.822;2023-08-01T05:34:14;8.35;;;1.35;;
58460;SDS011;45558;37.752;-97.822;2023-08-01T05:36:40;10.45;;;1.92;;
58460;SDS011;45558;37.752;-97.822;2023-08-01T05:39:05;5.97;;;1.33;;
58460;SDS011;45558;37.752;-97.822;2023-08-01T05:41:31;3.78;;;1.27;;
58460;SDS011;45558;37.752;-97.822;2023-08-01T05:43:57;6.85;;;1.02;;
58460;SDS011;45558;37.752;-97.822;2023-08-01T05:46:23;2.45;;;0.93;;
58460;SDS011;45558;37.752;-97.822;2023-08-01T05:48:49;8.82;;;2.15;;
58460;SDS011;45558;37.752;-97.822;2023-08-01T05:51:14;4.03;;;1.30;;
58460;SDS011;45558;37.752;-97.822;2023-08-01T05:53:40;8.10;;;1.30;;
58460;SDS011;45558;37.752;-97.822;2023-08-01T05:56:06;10.82;;;1.75;;
58460;SDS011;45558;37.752;-97.822;2023-08-01T05:58:32;7.35;;;1.45;;
58460;SDS011;45558;37.752;-97.822;2023-08-01T06:00:57;4.35;;;1.40;;
58460;SDS011;45558;37.752;-97.822;2023-08-01T06:03:23;6.45;;;1.50;;
58460;SDS011;45558;37.752;-97.822;2023-08-01T06:05:49;7.07;;;1.27;;
58460;SDS011;45558;37.752;-97.822;2023-08-01T06:08:15;7.65;;;1.30;;
58460;SDS011;45558;37.752;-97.822;2023-08-01T06:10:41;4.18;;;1.10;;
58460;SDS011;45558;37.752;-97.822;2023-08-01T06:13:07;8.75;;;1.98;;
58460;SDS011;45558;37.752;-97.822;2023-08-01T06:15:33;7.80;;;0.98;;
58460;SDS011;45558;37.752;-97.822;2023-08-01T06:17:59;9.45;;;1.58;;
58460;SDS011;45558;37.752;-97.822;2023-08-01T06:20:25;6.85;;;1.33;;
58460;SDS011;45558;37.752;-97.822;2023-08-01T06:22:51;14.50;;;1.75;;
58460;SDS011;45558;37.752;-97.822;2023-08-01T06:25:22;8.35;;;1.48;;
58460;SDS011;45558;37.752;-97.822;2023-08-01T06:27:48;5.57;;;1.20;;
58460;SDS011;45558;37.752;-97.822;2023-08-01T06:30:14;6.38;;;1.05;;
58460;SDS011;45558;37.752;-97.822;2023-08-01T06:32:40;5.93;;;1.10;;
58460;SDS011;45558;37.752;-97.822;2023-08-01T06:35:06;3.05;;;0.93;;
58460;SDS011;45558;37.752;-97.822;2023-08-01T06:37:33;7.03;;;1.40;;
58460;SDS011;45558;37.752;-97.822;2023-08-01T06:39:58;5.15;;;0.85;;
58460;SDS011;45558;37.752;-97.822;2023-08-01T06:42:24;3.38;;;0.98;;
58460;SDS011;45558;37.752;-97.822;2023-08-01T06:44:50;4.85;;;0.85;;
58460;SDS011;45558;37.752;-97.822;2023-08-01T06:47:16;5.72;;;1.00;;
58460;SDS011;45558;37.752;-97.822;2023-08-01T06:49:42;11.05;;;1.55;;
58460;SDS011;45558;37.752;-97.822;2023-08-01T06:52:08;3.10;;;0.85;;
58460;SDS011;45558;37.752;-97.822;2023-08-01T06:54:34;7.05;;;1.65;;
58460;SDS011;45558;37.752;-97.822;2023-08-01T06:57:00;6.63;;;0.88;;
58460;SDS011;45558;37.752;-97.822;2023-08-01T06:59:26;6.88;;;0.85;;
58460;SDS011;45558;37.752;-97.822;2023-08-01T07:01:51;5.72;;;0.80;;
58460;SDS011;45558;37.752;-97.822;2023-08-01T07:04:17;4.45;;;0.77;;
58460;SDS011;45558;37.752;-97.822;2023-08-01T07:06:43;5.03;;;1.00;;
58460;SDS011;45558;37.752;-97.822;2023-08-01T07:09:09;6.60;;;1.20;;
58460;SDS011;45558;37.752;-97.822;2023-08-01T07:11:35;4.78;;;0.90;;
58460;SDS011;45558;37.752;-97.822;2023-08-01T07:14:01;6.70;;;1.25;;
58460;SDS011;45558;37.752;-97.822;2023-08-01T07:16:27;3.20;;;0.80;;
58460;SDS011;45558;37.752;-97.822;2023-08-01T07:18:53;5.25;;;0.75;;
58460;SDS011;45558;37.752;-97.822;2023-08-01T07:21:20;5.93;;;0.88;;
58460;SDS011;45558;37.752;-97.822;2023-08-01T07:23:46;6.43;;;0.70;;
58460;SDS011;45558;37.752;-97.822;2023-08-01T07:26:13;4.15;;;1.40;;
58460;SDS011;45558;37.752;-97.822;2023-08-01T07:28:39;5.00;;;0.40;;
58460;SDS011;45558;37.752;-97.822;2023-08-01T07:31:05;4.75;;;0.50;;
58460;SDS011;45558;37.752;-97.822;2023-08-01T07:33:32;5.40;;;0.57;;
58460;SDS011;45558;37.752;-97.822;2023-08-01T07:35:59;6.38;;;0.70;;
58460;SDS011;45558;37.752;-97.822;2023-08-01T07:38:25;5.07;;;0.55;;
58460;SDS011;45558;37.752;-97.822;2023-08-01T07:40:54;6.53;;;0.60;;
58460;SDS011;45558;37.752;-97.822;2023-08-01T07:43:20;7.53;;;0.70;;
58460;SDS011;45558;37.752;-97.822;2023-08-01T07:45:45;7.10;;;1.13;;
58460;SDS011;45558;37.752;-97.822;2023-08-01T07:48:11;5.97;;;0.55;;
58460;SDS011;45558;37.752;-97.822;2023-08-01T07:50:37;4.22;;;0.77;;
58460;SDS011;45558;37.752;-97.822;2023-08-01T07:53:03;5.45;;;1.00;;
58460;SDS011;45558;37.752;-97.822;2023-08-01T07:55:29;4.18;;;0.40;;
58460;SDS011;45558;37.752;-97.822;2023-08-01T07:57:59;6.97;;;0.45;;
58460;SDS011;45558;37.752;-97.822;2023-08-01T08:00:25;3.13;;;0.40;;
58460;SDS011;45558;37.752;-97.822;2023-08-01T08:02:51;3.53;;;0.50;;
58460;SDS011;45558;37.752;-97.822;2023-08-01T08:05:19;3.03;;;0.43;;
58460;SDS011;45558;37.752;-97.822;2023-08-01T08:07:45;3.25;;;0.47;;
58460;SDS011;45558;37.752;-97.822;2023-08-01T08:10:12;3.65;;;0.40;;
58460;SDS011;45558;37.752;-97.822;2023-08-01T08:12:37;3.65;;;0.70;;
58460;SDS011;45558;37.752;-97.822;2023-08-01T08:15:03;3.30;;;0.75;;
58460;SDS011;45558;37.752;-97.822;2023-08-01T08:17:29;3.20;;;0.50;;
58460;SDS011;45558;37.752;-97.822;2023-08-01T08:19:54;6.72;;;0.55;;
58460;SDS011;45558;37.752;-97.822;2023-08-01T08:22:20;2.58;;;0.30;;
58460;SDS011;45558;37.752;-97.822;2023-08-01T08:24:46;7.15;;;1.15;;
58460;SDS011;45558;37.752;-97.822;2023-08-01T08:27:12;2.03;;;0.30;;
58460;SDS011;45558;37.752;-97.822;2023-08-01T08:29:38;2.58;;;0.20;;
58460;SDS011;45558;37.752;-97.822;2023-08-01T08:32:04;5.45;;;0.47;;
58460;SDS011;45558;37.752;-97.822;2023-08-01T08:34:30;6.85;;;0.40;;
58460;SDS011;45558;37.752;-97.822;2023-08-01T08:36:56;1.10;;;0.20;;
58460;SDS011;45558;37.752;-97.822;2023-08-01T08:39:21;1.52;;;0.30;;
58460;SDS011;45558;37.752;-97.822;2023-08-01T08:41:51;3.22;;;0.30;;
58460;SDS011;45558;37.752;-97.822;2023-08-01T08:44:18;2.22;;;0.43;;
58460;SDS011;45558;37.752;-97.822;2023-08-01T08:46:53;2.40;;;0.20;;
58460;SDS011;45558;37.752;-97.822;2023-08-01T08:49:19;4.82;;;0.20;;
58460;SDS011;45558;37.752;-97.822;2023-08-01T08:51:47;2.03;;;0.25;;
58460;SDS011;45558;37.752;-97.822;2023-08-01T08:54:14;3.13;;;0.30;;
58460;SDS011;45558;37.752;-97.822;2023-08-01T08:56:41;1.50;;;0.30;;
58460;SDS011;45558;37.752;-97.822;2023-08-01T08:59:07;3.72;;;0.20;;
58460;SDS011;45558;37.752;-97.822;2023-08-01T09:01:35;0.82;;;0.20;;
58460;SDS011;45558;37.752;-97.822;2023-08-01T09:04:02;4.60;;;0.45;;
58460;SDS011;45558;37.752;-97.822;2023-08-01T09:06:29;3.17;;;0.20;;
58460;SDS011;45558;37.752;-97.822;2023-08-01T09:09:03;1.58;;;0.40;;
58460;SDS011;45558;37.752;-97.822;2023-08-01T09:11:55;2.70;;;0.20;;
58460;SDS011;45558;37.752;-97.822;2023-08-01T09:14:23;1.33;;;0.20;;
58460;SDS011;45558;37.752;-97.822;2023-08-01T09:16:49;2.85;;;0.60;;
58460;SDS011;45558;37.752;-97.822;2023-08-01T09:19:18;6.18;;;0.40;;
58460;SDS011;45558;37.752;-97.822;2023-08-01T09:21:45;2.65;;;0.30;;
58460;SDS011;45558;37.752;-97.822;2023-08-01T09:24:15;3.83;;;0.40;;
58460;SDS011;45558;37.752;-97.822;2023-08-01T09:29:08;3.97;;;0.20;;
58460;SDS011;45558;37.752;-97.822;2023-08-01T09:31:35;4.03;;;0.20;;
58460;SDS011;45558;37.752;-97.822;2023-08-01T09:34:02;3.30;;;0.28;;
58460;SDS011;45558;37.752;-97.822;2023-08-01T09:36:30;3.15;;;0.43;;
58460;SDS011;45558;37.752;-97.822;2023-08-01T09:39:01;2.85;;;0.20;;
58460;SDS011;45558;37.752;-97.822;2023-08-01T09:41:31;1.13;;;0.25;;
58460;SDS011;45558;37.752;-97.822;2023-08-01T09:43:58;1.98;;;0.20;;
58460;SDS011;45558;37.752;-97.822;2023-08-01T09:46:24;1.98;;;0.20;;
58460;SDS011;45558;37.752;-97.822;2023-08-01T09:48:51;3.92;;;0.40;;
58460;SDS011;45558;37.752;-97.822;2023-08-01T09:51:17;5.15;;;0.60;;
58460;SDS011;45558;37.752;-97.822;2023-08-01T09:53:49;1.00;;;0.25;;
58460;SDS011;45558;37.752;-97.822;2023-08-01T09:56:18;4.90;;;0.60;;
58460;SDS011;45558;37.752;-97.822;2023-08-01T09:58:46;3.88;;;0.30;;
58460;SDS011;45558;37.752;-97.822;2023-08-01T10:01:13;2.85;;;0.28;;
58460;SDS011;45558;37.752;-97.822;2023-08-01T10:03:41;2.35;;;0.50;;
58460;SDS011;45558;37.752;-97.822;2023-08-01T10:06:20;0.55;;;0.22;;
58460;SDS011;45558;37.752;-97.822;2023-08-01T10:08:47;3.65;;;0.20;;
58460;SDS011;45558;37.752;-97.822;2023-08-01T10:11:16;3.95;;;0.10;;
58460;SDS011;45558;37.752;-97.822;2023-08-01T10:13:43;5.18;;;0.70;;
58460;SDS011;45558;37.752;-97.822;2023-08-01T10:16:11;0.38;;;0.17;;
58460;SDS011;45558;37.752;-97.822;2023-08-01T10:18:39;1.05;;;0.32;;
58460;SDS011;45558;37.752;-97.822;2023-08-01T10:21:05;1.52;;;0.13;;
58460;SDS011;45558;37.752;-97.822;2023-08-01T10:23:32;1.13;;;0.10;;
58460;SDS011;45558;37.752;-97.822;2023-08-01T10:26:00;0.88;;;0.30;;
58460;SDS011;45558;37.752;-97.822;2023-08-01T10:28:34;3.33;;;0.20;;
58460;SDS011;45558;37.752;-97.822;2023-08-01T10:31:14;9.57;;;0.47;;
58460;SDS011;45558;37.752;-97.822;2023-08-01T10:33:42;0.77;;;0.40;;
58460;SDS011;45558;37.752;-97.822;2023-08-01T10:36:27;1.80;;;0.28;;
58460;SDS011;45558;37.752;-97.822;2023-08-01T10:38:55;0.57;;;0.15;;
58460;SDS011;45558;37.752;-97.822;2023-08-01T10:44:31;1.52;;;0.30;;
58460;SDS011;45558;37.752;-97.822;2023-08-01T10:46:57;2.22;;;0.20;;
58460;SDS011;45558;37.752;-97.822;2023-08-01T10:49:35;1.30;;;0.30;;
58460;SDS011;45558;37.752;-97.822;2023-08-01T10:55:38;1.27;;;0.20;;
58460;SDS011;45558;37.752;-97.822;2023-08-01T10:58:08;2.13;;;0.15;;
58460;SDS011;45558;37.752;-97.822;2023-08-01T11:00:35;1.27;;;0.30;;
58460;SDS011;45558;37.752;-97.822;2023-08-01T11:06:22;0.55;;;0.15;;
58460;SDS011;45558;37.752;-97.822;2023-08-01T11:08:49;2.28;;;0.50;;
58460;SDS011;45558;37.752;-97.822;2023-08-01T11:11:14;2.10;;;0.40;;
58460;SDS011;45558;37.752;-97.822;2023-08-01T11:13:40;1.65;;;0.30;;
58460;SDS011;45558;37.752;-97.822;2023-08-01T11:16:06;3.90;;;0.60;;
58460;SDS011;45558;37.752;-97.822;2023-08-01T11:18:42;2.00;;;0.20;;
58460;SDS011;45558;37.752;-97.822;2023-08-01T11:21:10;2.08;;;0.30;;
58460;SDS011;45558;37.752;-97.822;2023-08-01T11:23:35;0.88;;;0.30;;
58460;SDS011;45558;37.752;-97.822;2023-08-01T11:26:06;0.73;;;0.20;;
58460;SDS011;45558;37.752;-97.822;2023-08-01T11:28:35;1.60;;;0.30;;
58460;SDS011;45558;37.752;-97.822;2023-08-01T11:31:10;2.83;;;1.05;;
58460;SDS011;45558;37.752;-97.822;2023-08-01T11:33:37;4.70;;;0.63;;
58460;SDS011;45558;37.752;-97.822;2023-08-01T11:36:03;3.28;;;0.50;;
58460;SDS011;45558;37.752;-97.822;2023-08-01T11:38:32;0.73;;;0.30;;
58460;SDS011;45558;37.752;-97.822;2023-08-01T11:40:59;2.35;;;0.50;;
58460;SDS011;45558;37.752;-97.822;2023-08-01T11:46:47;0.52;;;0.10;;
58460;SDS011;45558;37.752;-97.822;2023-08-01T11:49:13;0.75;;;0.30;;
58460;SDS011;45558;37.752;-97.822;2023-08-01T11:51:44;0.70;;;0.30;;
58460;SDS011;45558;37.752;-97.822;2023-08-01T11:54:11;0.90;;;0.25;;
58460;SDS011;45558;37.752;-97.822;2023-08-01T11:56:39;0.90;;;0.28;;
58460;SDS011;45558;37.752;-97.822;2023-08-01T12:01:42;0.17;;;0.10;;
58460;SDS011;45558;37.752;-97.822;2023-08-01T12:04:10;1.52;;;0.30;;
58460;SDS011;45558;37.752;-97.822;2023-08-01T12:06:36;0.82;;;0.30;;
58460;SDS011;45558;37.752;-97.822;2023-08-01T12:09:08;3.50;;;0.30;;
58460;SDS011;45558;37.752;-97.822;2023-08-01T12:11:36;1.00;;;0.20;;
58460;SDS011;45558;37.752;-97.822;2023-08-01T12:14:03;1.13;;;0.30;;
58460;SDS011;45558;37.752;-97.822;2023-08-01T12:16:29;0.28;;;0.20;;
58460;SDS011;45558;37.752;-97.822;2023-08-01T12:18:55;1.23;;;0.38;;
58460;SDS011;45558;37.752;-97.822;2023-08-01T12:21:22;0.88;;;0.25;;
58460;SDS011;45558;37.752;-97.822;2023-08-01T12:23:47;0.38;;;0.15;;
58460;SDS011;45558;37.752;-97.822;2023-08-01T12:26:13;2.95;;;0.20;;
58460;SDS011;45558;37.752;-97.822;2023-08-01T12:28:39;1.80;;;0.30;;
58460;SDS011;45558;37.752;-97.822;2023-08-01T12:31:05;0.63;;;0.10;;
58460;SDS011;45558;37.752;-97.822;2023-08-01T12:33:32;2.28;;;0.30;;
58460;SDS011;45558;37.752;-97.822;2023-08-01T12:35:58;1.02;;;0.28;;
58460;SDS011;45558;37.752;-97.822;2023-08-01T12:38:25;2.83;;;0.40;;
58460;SDS011;45558;37.752;-97.822;2023-08-01T12:40:52;1.92;;;0.50;;
58460;SDS011;45558;37.752;-97.822;2023-08-01T12:43:18;3.17;;;0.65;;
58460;SDS011;45558;37.752;-97.822;2023-08-01T12:45:44;2.28;;;0.70;;
58460;SDS011;45558;37.752;-97.822;2023-08-01T12:48:11;1.33;;;0.30;;
58460;SDS011;45558;37.752;-97.822;2023-08-01T12:50:37;3.20;;;0.40;;
58460;SDS011;45558;37.752;-97.822;2023-08-01T12:53:05;2.85;;;0.60;;
58460;SDS011;45558;37.752;-97.822;2023-08-01T12:55:31;2.40;;;0.32;;
58460;SDS011;45558;37.752;-97.822;2023-08-01T12:57:57;2.35;;;0.43;;
58460;SDS011;45558;37.752;-97.822;2023-08-01T13:00:23;1.77;;;0.93;;
58460;SDS011;45558;37.752;-97.822;2023-08-01T13:02:49;5.60;;;0.55;;
58460;SDS011;45558;37.752;-97.822;2023-08-01T13:05:15;3.58;;;0.50;;
58460;SDS011;45558;37.752;-97.822;2023-08-01T13:07:41;1.17;;;0.20;;
58460;SDS011;45558;37.752;-97.822;2023-08-01T13:10:08;4.53;;;0.65;;
58460;SDS011;45558;37.752;-97.822;2023-08-01T13:12:35;0.68;;;0.28;;
58460;SDS011;45558;37.752;-97.822;2023-08-01T13:15:01;1.83;;;0.30;;
58460;SDS011;45558;37.752;-97.822;2023-08-01T13:17:28;2.45;;;0.40;;
58460;SDS011;45558;37.752;-97.822;2023-08-01T13:19:54;3.53;;;0.47;;
58460;SDS011;45558;37.752;-97.822;2023-08-01T13:22:20;3.17;;;0.45;;
58460;SDS011;45558;37.752;-97.822;2023-08-01T13:24:46;1.83;;;0.43;;
58460;SDS011;45558;37.752;-97.822;2023-08-01T13:27:12;1.75;;;0.40;;
58460;SDS011;45558;37.752;-97.822;2023-08-01T13:29:38;2.30;;;0.30;;
58460;SDS011;45558;37.752;-97.822;2023-08-01T13:32:05;1.13;;;0.30;;
58460;SDS011;45558;37.752;-97.822;2023-08-01T13:34:31;5.32;;;0.52;;
58460;SDS011;45558;37.752;-97.822;2023-08-01T13:36:57;1.75;;;0.65;;
58460;SDS011;45558;37.752;-97.822;2023-08-01T13:39:23;3.00;;;0.73;;
58460;SDS011;45558;37.752;-97.822;2023-08-01T13:41:49;4.07;;;0.50;;
58460;SDS011;45558;37.752;-97.822;2023-08-01T13:44:24;2.05;;;0.75;;
58460;SDS011;45558;37.752;-97.822;2023-08-01T13:46:50;1.67;;;0.40;;
58460;SDS011;45558;37.752;-97.822;2023-08-01T13:49:16;5.43;;;1.48;;
58460;SDS011;45558;37.752;-97.822;2023-08-01T13:51:42;1.90;;;0.50;;
58460;SDS011;45558;37.752;-97.822;2023-08-01T13:54:08;3.35;;;0.65;;
58460;SDS011;45558;37.752;-97.822;2023-08-01T13:56:34;5.68;;;0.38;;
58460;SDS011;45558;37.752;-97.822;2023-08-01T13:59:00;2.83;;;0.70;;
58460;SDS011;45558;37.752;-97.822;2023-08-01T14:01:27;3.53;;;0.50;;
58460;SDS011;45558;37.752;-97.822;2023-08-01T14:03:53;4.18;;;0.52;;
58460;SDS011;45558;37.752;-97.822;2023-08-01T14:06:19;6.90;;;0.57;;
58460;SDS011;45558;37.752;-97.822;2023-08-01T14:08:45;2.47;;;0.30;;
58460;SDS011;45558;37.752;-97.822;2023-08-01T14:11:11;3.70;;;0.88;;
58460;SDS011;45558;37.752;-97.822;2023-08-01T14:13:36;1.02;;;0.25;;
58460;SDS011;45558;37.752;-97.822;2023-08-01T14:16:02;3.75;;;0.85;;
58460;SDS011;45558;37.752;-97.822;2023-08-01T14:18:29;3.40;;;0.50;;
58460;SDS011;45558;37.752;-97.822;2023-08-01T14:20:56;3.05;;;0.60;;
58460;SDS011;45558;37.752;-97.822;2023-08-01T14:23:22;4.90;;;0.60;;
58460;SDS011;45558;37.752;-97.822;2023-08-01T14:25:49;3.83;;;0.75;;
58460;SDS011;45558;37.752;-97.822;2023-08-01T14:28:14;4.22;;;0.88;;
58460;SDS011;45558;37.752;-97.822;2023-08-01T14:30:40;5.50;;;0.88;;
58460;SDS011;45558;37.752;-97.822;2023-08-01T14:33:08;2.63;;;0.73;;
58460;SDS011;45558;37.752;-97.822;2023-08-01T14:35:37;4.15;;;0.45;;
58460;SDS011;45558;37.752;-97.822;2023-08-01T14:38:06;1.00;;;0.50;;
58460;SDS011;45558;37.752;-97.822;2023-08-01T14:40:32;3.10;;;0.47;;
58460;SDS011;45558;37.752;-97.822;2023-08-01T14:43:00;4.10;;;0.40;;